Time;durP1;ratioP1;P1;durP2;ratioP2;P2;SDS_P1;SDS_P2;PMS_P1;PMS_P2;Temp;Humidity;BMP_temperature;BMP_pressure;BME280_temperature;BME280_humidity;BME280_pressure;Samples;Min_cycle;Max_cycle;Signal;HPM_P1;HPM_P2
2023/10/13 00:00:41;;;;;;;;;;;17.00;99.90;;;;;;5074498;28;20028;-67
2023/10/13 00:03:14;;;;;;;;;;;16.90;99.90;;;;;;5073644;28;19966;-68
2023/10/13 00:05:43;;;;;;;;;;;16.90;99.90;;;;;;5089071;28;19970;-67
2023/10/13 00:08:13;;;;;;;;;;;16.80;99.90;;;;;;5083529;28;19963;-67
2023/10/13 00:10:41;;;;;;;;;;;16.80;99.90;;;;;;5074179;28;20057;-67
2023/10/13 00:13:12;;;;;;;;;;;16.80;99.90;;;;;;5079444;28;19963;-67
2023/10/13 00:15:46;;;;;;;;;;;16.80;99.90;;;;;;5074292;28;19969;-67
2023/10/13 00:18:14;;;;;;;;;;;16.70;99.90;;;;;;5074370;28;19958;-67
2023/10/13 00:20:48;;;;;;;;;;;16.70;99.90;;;;;;5074167;28;20029;-68
2023/10/13 00:23:20;;;;;;;;;;;16.60;99.90;;;;;;5074060;28;19973;-67
2023/10/13 00:25:56;;;;;;;;;;;16.70;99.90;;;;;;5074307;28;19962;-67
2023/10/13 00:28:25;;;;;;;;;;;16.70;99.90;;;;;;5081614;28;19961;-68
2023/10/13 00:31:00;;;;;;;;;;;16.70;99.90;;;;;;5080764;28;20606;-67
2023/10/13 00:33:28;;;;;;;;;;;16.70;99.90;;;;;;5074208;28;20012;-67
2023/10/13 00:35:57;;;;;;;;;;;16.70;99.90;;;;;;5090478;28;19962;-67
2023/10/13 00:38:27;;;;;;;;;;;16.70;99.90;;;;;;5073986;28;20475;-66
2023/10/13 00:40:55;;;;;;;;;;;16.70;99.90;;;;;;5073677;28;19966;-68
2023/10/13 00:43:32;;;;;;;;;;;16.70;99.90;;;;;;5078334;28;20582;-68
2023/10/13 00:46:06;;;;;;;;;;;16.70;99.90;;;;;;5074749;28;19969;-68
2023/10/13 00:48:38;;;;;;;;;;;16.60;99.90;;;;;;5073970;28;19965;-68
2023/10/13 00:51:07;;;;;;;;;;;16.70;99.90;;;;;;5081283;28;19963;-67
2023/10/13 00:53:39;;;;;;;;;;;16.70;99.90;;;;;;5073930;28;20057;-68
2023/10/13 00:56:09;;;;;;;;;;;16.70;99.90;;;;;;5074897;28;20510;-66
2023/10/13 00:58:38;;;;;;;;;;;16.70;99.90;;;;;;5072876;28;19967;-66
2023/10/13 01:01:18;;;;;;;;;;;16.80;99.90;;;;;;5075751;28;20340;-66
2023/10/13 01:03:45;;;;;;;;;;;16.80;99.90;;;;;;5073904;28;20502;-68
2023/10/13 01:06:13;;;;;;;;;;;16.80;99.90;;;;;;5088341;28;20035;-67
2023/10/13 01:08:44;;;;;;;;;;;16.90;99.90;;;;;;5080077;28;19963;-66
2023/10/13 01:11:13;;;;;;;;;;;16.90;99.90;;;;;;5073647;28;19962;-67
2023/10/13 01:13:41;;;;;;;;;;;16.90;99.90;;;;;;5073842;28;20448;-67
2023/10/13 01:16:10;;;;;;;;;;;16.90;99.90;;;;;;5082072;28;19970;-66
2023/10/13 01:18:47;;;;;;;;;;;16.80;99.90;;;;;;5075985;28;20079;-66
2023/10/13 01:21:29;;;;;;;;;;;16.80;99.90;;;;;;5074076;28;19958;-66
2023/10/13 01:23:57;;;;;;;;;;;16.70;99.90;;;;;;5074461;28;19962;-67
2023/10/13 01:26:26;;;;;;;;;;;16.70;99.90;;;;;;5073759;28;19964;-67
2023/10/13 01:28:57;;;;;;;;;;;16.60;99.90;;;;;;5075246;28;20011;-67
2023/10/13 01:31:29;;;;;;;;;;;16.60;99.90;;;;;;5075205;28;19985;-67
2023/10/13 01:33:58;;;;;;;;;;;16.60;99.90;;;;;;5074568;28;20001;-67
2023/10/13 01:36:27;;;;;;;;;;;16.60;99.90;;;;;;5090699;28;20020;-66
2023/10/13 01:38:54;;;;;;;;;;;16.50;99.90;;;;;;5078291;28;19962;-66
2023/10/13 01:41:30;;;;;;;;;;;16.60;99.90;;;;;;5073175;28;19963;-67
2023/10/13 01:43:57;;;;;;;;;;;16.50;99.90;;;;;;5074202;28;20073;-66
2023/10/13 01:46:25;;;;;;;;;;;16.60;99.90;;;;;;5074379;28;20020;-66
2023/10/13 01:48:54;;;;;;;;;;;16.60;99.90;;;;;;5073721;28;19963;-67
2023/10/13 01:51:23;;;;;;;;;;;16.70;99.90;;;;;;5073283;28;20443;-67
2023/10/13 01:53:56;;;;;;;;;;;16.60;99.90;;;;;;5078264;28;19962;-67
2023/10/13 01:56:24;;;;;;;;;;;16.60;99.90;;;;;;5073610;28;19958;-67
2023/10/13 01:58:53;;;;;;;;;;;16.70;99.90;;;;;;5073760;28;19962;-68
2023/10/13 02:01:27;;;;;;;;;;;16.60;99.90;;;;;;5074155;28;19969;-67
2023/10/13 02:04:02;;;;;;;;;;;16.60;99.90;;;;;;5073903;28;19966;-66
2023/10/13 02:06:33;;;;;;;;;;;16.60;99.90;;;;;;5084981;28;20485;-67
2023/10/13 02:09:05;;;;;;;;;;;16.60;99.90;;;;;;5077890;28;19962;-67
2023/10/13 02:11:33;;;;;;;;;;;16.70;99.90;;;;;;5073475;28;19958;-67
2023/10/13 02:14:01;;;;;;;;;;;16.70;99.90;;;;;;5074583;28;19962;-68
2023/10/13 02:16:30;;;;;;;;;;;16.60;99.90;;;;;;5080129;28;19959;-66
2023/10/13 02:19:03;;;;;;;;;;;16.60;99.90;;;;;;5073303;28;19992;-67
2023/10/13 02:21:32;;;;;;;;;;;16.60;99.90;;;;;;5078610;28;19958;-67
2023/10/13 02:24:04;;;;;;;;;;;16.70;99.90;;;;;;5074485;28;20012;-67
2023/10/13 02:26:32;;;;;;;;;;;16.70;99.90;;;;;;5073639;28;19958;-67
2023/10/13 02:29:00;;;;;;;;;;;16.70;99.90;;;;;;5073410;28;20419;-67
2023/10/13 02:31:29;;;;;;;;;;;16.80;99.90;;;;;;5072918;28;19966;-66
2023/10/13 02:33:56;;;;;;;;;;;16.80;99.90;;;;;;5074057;28;20061;-67
2023/10/13 02:36:35;;;;;;;;;;;16.80;99.90;;;;;;5091040;28;19965;-67
2023/10/13 02:39:07;;;;;;;;;;;16.90;99.90;;;;;;5083799;28;19963;-67
2023/10/13 02:41:36;;;;;;;;;;;17.00;99.90;;;;;;5081579;28;19962;-67
2023/10/13 02:44:05;;;;;;;;;;;17.00;99.90;;;;;;5075030;28;19963;-66
2023/10/13 02:46:39;;;;;;;;;;;17.00;99.90;;;;;;5073714;28;19959;-66
2023/10/13 02:49:10;;;;;;;;;;;17.10;99.90;;;;;;5078907;28;19963;-66
2023/10/13 02:51:41;;;;;;;;;;;17.00;99.90;;;;;;5073552;28;19970;-67
2023/10/13 02:54:10;;;;;;;;;;;17.10;99.90;;;;;;5080986;28;20620;-66
2023/10/13 02:56:47;;;;;;;;;;;17.10;99.90;;;;;;5073656;28;19963;-67
2023/10/13 02:59:14;;;;;;;;;;;17.20;99.90;;;;;;5073371;28;19966;-66
2023/10/13 03:01:43;;;;;;;;;;;17.20;99.90;;;;;;5071607;28;20425;-66
2023/10/13 03:04:12;;;;;;;;;;;17.20;99.90;;;;;;5075913;28;20396;-67
2023/10/13 03:06:41;;;;;;;;;;;17.20;99.90;;;;;;5077605;28;19968;-66
2023/10/13 03:09:15;;;;;;;;;;;17.20;99.90;;;;;;5077316;28;19966;-66
2023/10/13 03:11:47;;;;;;;;;;;17.30;99.90;;;;;;5073589;28;20450;-66
2023/10/13 03:14:23;;;;;;;;;;;17.20;99.90;;;;;;5075985;28;19965;-67
2023/10/13 03:16:54;;;;;;;;;;;17.20;99.90;;;;;;5081452;28;20060;-67
2023/10/13 03:19:21;;;;;;;;;;;17.20;99.90;;;;;;5075113;28;19971;-67
2023/10/13 03:21:54;;;;;;;;;;;17.20;99.90;;;;;;5073801;28;19998;-66
2023/10/13 03:24:33;;;;;;;;;;;17.20;99.90;;;;;;5073536;28;19966;-65
2023/10/13 03:27:08;;;;;;;;;;;17.20;99.90;;;;;;5073895;28;19966;-66
2023/10/13 03:29:36;;;;;;;;;;;17.20;99.90;;;;;;5073623;28;19997;-66
2023/10/13 03:32:11;;;;;;;;;;;17.20;99.90;;;;;;5075224;28;20494;-67
2023/10/13 03:34:49;;;;;;;;;;;17.30;99.90;;;;;;5081756;28;19962;-66
2023/10/13 03:37:20;;;;;;;;;;;17.30;99.90;;;;;;5073360;28;20065;-66
2023/10/13 03:39:48;;;;;;;;;;;17.30;99.90;;;;;;5073994;28;20017;-66
2023/10/13 03:42:19;;;;;;;;;;;17.30;99.90;;;;;;5083913;28;19995;-67
2023/10/13 03:44:47;;;;;;;;;;;17.30;99.90;;;;;;5073863;28;19966;-66
2023/10/13 03:47:26;;;;;;;;;;;17.40;99.90;;;;;;5073518;28;20016;-67
2023/10/13 03:50:14;;;;;;;;;;;17.40;99.90;;;;;;5073945;28;20510;-68
2023/10/13 03:52:42;;;;;;;;;;;17.30;99.90;;;;;;5073525;28;19962;-67
2023/10/13 03:55:17;;;;;;;;;;;17.30;99.90;;;;;;5074041;28;20057;-67
2023/10/13 03:57:50;;;;;;;;;;;17.20;99.90;;;;;;5073799;28;20378;-68
2023/10/13 04:00:24;;;;;;;;;;;17.20;99.90;;;;;;5073428;28;20323;-67
2023/10/13 04:03:08;;;;;;;;;;;17.10;99.90;;;;;;5076067;28;19959;-67
2023/10/13 04:05:40;;;;;;;;;;;16.90;99.90;;;;;;5087990;28;20020;-67
2023/10/13 04:14:21;;;;;;;;;;;16.80;99.90;;;;;;5076881;28;20429;-68
2023/10/13 04:16:39;;;;;;;;;;;16.80;99.90;;;;;;5077087;28;19967;-67
2023/10/13 04:19:09;;;;;;;;;;;16.80;99.90;;;;;;5077333;28;19982;-66
2023/10/13 04:21:39;;;;;;;;;;;16.90;99.90;;;;;;5077050;28;19970;-67
2023/10/13 04:24:37;;;;;;;;;;;16.90;99.90;;;;;;5079273;28;20053;-67
2023/10/13 04:27:39;;;;;;;;;;;17.00;99.90;;;;;;5077511;28;19963;-67
2023/10/13 04:30:24;;;;;;;;;;;17.00;99.90;;;;;;5079405;28;20020;-67
2023/10/13 04:33:15;;;;;;;;;;;17.00;99.90;;;;;;5077259;28;19980;-66
2023/10/13 04:35:58;;;;;;;;;;;17.00;99.90;;;;;;5086996;28;20019;-66
2023/10/13 04:38:33;;;;;;;;;;;17.00;99.90;;;;;;5076940;28;20015;-66
2023/10/13 04:41:01;;;;;;;;;;;17.10;99.90;;;;;;5077043;28;19963;-67
2023/10/13 04:43:55;;;;;;;;;;;17.10;99.90;;;;;;5077204;28;19978;-69
2023/10/13 04:46:35;;;;;;;;;;;17.20;99.90;;;;;;5075113;28;19958;-68
2023/10/13 04:49:09;;;;;;;;;;;17.30;99.90;;;;;;5076822;28;20096;-69
2023/10/13 04:51:58;;;;;;;;;;;17.30;99.90;;;;;;5076847;28;19998;-69
2023/10/13 04:54:26;;;;;;;;;;;17.30;99.90;;;;;;5077668;28;20444;-66
2023/10/13 04:57:19;;;;;;;;;;;17.30;99.90;;;;;;5077315;28;19989;-66
2023/10/13 05:02:43;;;;;;;;;;;17.40;99.90;;;;;;5078661;28;19957;-66
2023/10/13 05:05:30;;;;;;;;;;;17.40;99.90;;;;;;5085522;28;19962;-66
2023/10/13 05:47:22;;;;;;;3.90;3.60;;;16.70;99.90;;;;;;5076297;28;20210;-65
2023/10/13 05:49:50;;;;;;;3.42;2.72;;;16.70;99.90;;;;;;5074552;28;20227;-64
2023/10/13 06:28:45;;;;;;;7.00;3.90;;;17.40;99.90;;;;;;5061522;28;20210;-68
2023/10/13 06:31:22;;;;;;;5.75;3.38;;;17.60;99.90;;;;;;5077278;28;20205;-65
2023/10/13 06:33:51;;;;;;;4.22;3.22;;;17.60;99.90;;;;;;5079967;28;20230;-65
2023/10/13 06:36:18;;;;;;;4.25;3.20;;;17.60;99.90;;;;;;5082357;28;20273;-65
2023/10/13 06:38:54;;;;;;;4.15;2.88;;;17.70;99.90;;;;;;5077581;28;20289;-65
2023/10/13 06:41:30;;;;;;;3.97;3.10;;;17.70;99.90;;;;;;5086998;28;20727;-65
2023/10/13 06:44:00;;;;;;;3.83;3.53;;;17.70;99.90;;;;;;5078839;28;20225;-66
2023/10/13 06:46:33;;;;;;;3.95;3.35;;;17.60;99.90;;;;;;5083949;28;20781;-65
2023/10/13 06:49:02;;;;;;;2.20;2.00;;;17.70;99.90;;;;;;5075949;28;20232;-65
2023/10/13 06:51:37;;;;;;;3.13;2.45;;;17.70;99.90;;;;;;5079042;28;20203;-65
2023/10/13 06:54:11;;;;;;;3.15;2.85;;;17.80;99.90;;;;;;5083295;28;20217;-66
2023/10/13 06:56:40;;;;;;;2.50;2.30;;;17.80;99.90;;;;;;5080032;28;20199;-65
2023/10/13 06:59:08;;;;;;;4.57;3.00;;;17.80;99.90;;;;;;5077887;28;20206;-66
2023/10/13 07:01:40;;;;;;;4.32;3.28;;;17.80;99.90;;;;;;5078322;28;20217;-65
2023/10/13 07:04:13;;;;;;;5.72;3.20;;;17.80;99.90;;;;;;5077786;28;20242;-65
2023/10/13 07:06:47;;;;;;;3.40;3.10;;;17.80;99.90;;;;;;5079182;28;20583;-66
2023/10/13 07:12:02;;;;;;;3.75;3.22;;;17.80;99.90;;;;;;5074649;28;20272;-65
2023/10/13 07:14:33;;;;;;;3.45;3.15;;;17.80;99.90;;;;;;5086993;28;20297;-65
2023/10/13 07:17:05;;;;;;;3.45;3.03;;;17.80;99.90;;;;;;5075962;28;20210;-65
2023/10/13 07:19:34;;;;;;;3.53;2.70;;;17.90;99.90;;;;;;5081407;28;20591;-66
2023/10/13 07:22:19;;;;;;;4.53;3.35;;;17.90;99.90;;;;;;5079567;28;20287;-64
2023/10/13 07:24:48;;;;;;;5.82;2.92;;;17.90;99.90;;;;;;5082176;28;20211;-65
2023/10/13 07:27:22;;;;;;;6.47;3.08;;;17.80;99.90;;;;;;5076661;28;20306;-65
2023/10/13 07:29:56;;;;;;;4.15;2.90;;;17.80;99.90;;;;;;5077869;28;20214;-65
2023/10/13 07:32:26;;;;;;;3.83;3.08;;;17.80;99.90;;;;;;5076914;28;20211;-64
2023/10/13 07:34:56;;;;;;;7.10;4.18;;;17.80;99.90;;;;;;5079232;28;20259;-64
2023/10/13 07:37:28;;;;;;;5.90;3.38;;;17.90;99.90;;;;;;5090948;28;20199;-65
2023/10/13 07:39:58;;;;;;;5.03;3.20;;;17.80;99.90;;;;;;5080147;28;20789;-65
2023/10/13 07:42:31;;;;;;;4.80;4.35;;;17.80;99.90;;;;;;5090815;28;20294;-66
2023/10/13 07:44:59;;;;;;;3.38;2.75;;;17.90;99.90;;;;;;5083249;28;20203;-66
2023/10/13 07:47:29;;;;;;;4.95;3.05;;;18.00;99.90;;;;;;5088378;28;20237;-65
2023/10/13 07:49:57;;;;;;;3.10;2.38;;;18.20;99.90;;;;;;5081060;28;20642;-66
2023/10/13 07:52:36;;;;;;;3.92;2.58;;;18.30;99.90;;;;;;5083093;28;20202;-65
2023/10/13 07:55:20;;;;;;;4.47;3.25;;;18.40;99.90;;;;;;5078228;28;20281;-65
2023/10/13 07:57:54;;;;;;;11.93;2.90;;;18.60;99.90;;;;;;5075249;28;20206;-65
2023/10/13 08:00:28;;;;;;;7.22;3.00;;;18.70;99.90;;;;;;5079687;28;20273;-65
2023/10/13 08:03:17;;;;;;;1.95;1.75;;;18.70;99.90;;;;;;5081141;28;20218;-65
2023/10/13 08:05:58;;;;;;;5.93;3.35;;;18.80;99.90;;;;;;5088231;28;20210;-65
2023/10/13 08:08:34;;;;;;;5.85;3.00;;;18.70;99.90;;;;;;5083696;28;20566;-64
2023/10/13 08:11:08;;;;;;;4.47;3.00;;;18.80;99.90;;;;;;5082761;28;20276;-64
2023/10/13 08:13:37;;;;;;;4.45;2.40;;;18.80;99.90;;;;;;5079947;28;20238;-64
2023/10/13 08:16:23;;;;;;;3.83;2.45;;;18.90;99.90;;;;;;5081020;28;20226;-65
2023/10/13 08:18:53;;;;;;;6.63;3.50;;;19.30;99.90;;;;;;5084169;28;20203;-64
2023/10/13 08:21:23;;;;;;;2.88;2.28;;;19.50;99.90;;;;;;5080076;28;20210;-66
2023/10/13 08:23:59;;;;;;;6.38;3.13;;;19.60;99.90;;;;;;5084607;28;20226;-65
2023/10/13 08:26:56;;;;;;;4.78;2.80;;;19.60;99.90;;;;;;5076370;28;20222;-64
2023/10/13 08:32:36;;;;;;;4.68;2.63;;;19.50;99.90;;;;;;5078102;28;20729;-65
2023/10/13 08:35:22;;;;;;;4.82;3.30;;;19.50;99.90;;;;;;5077446;28;20210;-66
2023/10/13 08:38:13;;;;;;;3.65;2.85;;;19.90;99.90;;;;;;5082806;28;20586;-64
2023/10/13 08:43:45;;;;;;;3.58;3.28;;;20.20;99.90;;;;;;5079852;28;20259;-65
2023/10/13 08:49:15;;;;;;;5.65;3.50;;;20.70;99.90;;;;;;5080547;28;20233;-64
2023/10/13 08:51:48;;;;;;;4.55;2.85;;;21.00;99.90;;;;;;5089366;28;20202;-65
2023/10/13 08:54:33;;;;;;;2.42;2.22;;;21.10;99.90;;;;;;5083184;28;20287;-66
2023/10/13 08:57:19;;;;;;;2.25;2.00;;;21.20;99.90;;;;;;5080743;28;20587;-65
2023/10/13 08:59:53;;;;;;;4.88;2.47;;;21.20;99.90;;;;;;5079609;28;20290;-65
2023/10/13 09:02:51;;;;;;;4.47;2.85;;;21.10;99.90;;;;;;5077600;28;20202;-66
2023/10/13 09:05:41;;;;;;;4.43;2.35;;;21.30;99.90;;;;;;5082876;28;20248;-65
2023/10/13 09:08:08;;;;;;;4.15;2.90;;;21.20;99.90;;;;;;5090651;28;20744;-64
2023/10/13 09:10:49;;;;;;;5.07;2.97;;;21.30;99.90;;;;;;5083147;28;20225;-66
2023/10/13 09:13:20;;;;;;;2.50;2.28;;;21.40;99.90;;;;;;5079849;28;20227;-64
2023/10/13 09:16:00;;;;;;;4.57;3.28;;;21.60;99.90;;;;;;5079760;28;20219;-65
2023/10/13 09:18:46;;;;;;;7.05;3.38;;;21.50;99.90;;;;;;5077135;28;20199;-64
2023/10/13 09:21:47;;;;;;;3.75;2.97;;;21.30;99.90;;;;;;5079622;28;20210;-65
2023/10/13 09:24:17;;;;;;;11.88;3.45;;;21.00;99.90;;;;;;5087522;28;20565;-64
2023/10/13 09:26:49;;;;;;;3.60;3.33;;;20.80;99.90;;;;;;5084225;28;20708;-65
2023/10/13 09:29:18;;;;;;;2.92;2.60;;;20.80;99.90;;;;;;5087203;28;20253;-65
2023/10/13 09:32:01;;;;;;;5.65;2.90;;;20.90;99.90;;;;;;5079725;28;20238;-66
2023/10/13 09:34:33;;;;;;;5.80;2.58;;;21.00;99.90;;;;;;5080045;28;20249;-66
2023/10/13 09:37:04;;;;;;;3.53;2.78;;;21.20;99.90;;;;;;5089880;28;20757;-65
2023/10/13 09:39:44;;;;;;;5.88;3.55;;;21.30;99.90;;;;;;5078794;28;20203;-64
2023/10/13 09:42:15;;;;;;;7.30;3.63;;;21.40;99.90;;;;;;5082165;28;20258;-64
2023/10/13 09:44:51;;;;;;;4.53;3.30;;;21.60;99.90;;;;;;5083225;28;20210;-65
2023/10/13 09:47:29;;;;;;;4.35;4.05;;;22.10;99.90;;;;;;5087159;28;20280;-66
2023/10/13 09:50:05;;;;;;;6.40;5.93;;;22.50;99.90;;;;;;5080559;28;20214;-66
2023/10/13 09:52:37;;;;;;;2.35;2.15;;;22.90;99.90;;;;;;5083479;28;20277;-65
2023/10/13 09:55:25;;;;;;;3.15;2.60;;;23.20;99.90;;;;;;5080580;28;20210;-65
2023/10/13 09:58:09;;;;;;;3.63;2.95;;;23.30;99.90;;;;;;5077091;28;20206;-65
2023/10/13 10:00:46;;;;;;;3.90;3.13;;;23.50;99.90;;;;;;5081336;28;20210;-65
2023/10/13 10:03:39;;;;;;;3.15;2.45;;;23.40;99.90;;;;;;5079423;28;20232;-65
2023/10/13 10:06:13;;;;;;;2.40;2.20;;;23.30;99.90;;;;;;5081193;28;20572;-65
2023/10/13 10:08:48;;;;;;;5.60;3.05;;;23.30;99.90;;;;;;5082774;28;20565;-65
2023/10/13 10:11:58;;;;;;;4.70;2.45;;;23.20;99.90;;;;;;5079303;28;20219;-66
2023/10/13 10:14:42;;;;;;;4.72;2.90;;;23.20;99.90;;;;;;5055096;28;20234;-65
2023/10/13 10:17:11;;;;;;;2.75;2.50;;;23.10;99.90;;;;;;5071718;28;20261;-71
2023/10/13 10:19:49;;;;;;;3.25;3.03;;;23.10;99.90;;;;;;5070894;28;20257;-66
2023/10/13 10:22:33;;;;;;;3.20;2.25;;;23.40;99.90;;;;;;5070624;28;20198;-65
2023/10/13 10:25:02;;;;;;;5.35;2.55;;;23.60;99.90;;;;;;5070846;28;20241;-66
2023/10/13 10:27:34;;;;;;;3.72;2.88;;;23.50;99.90;;;;;;5070778;28;20238;-65
2023/10/13 10:30:03;;;;;;;8.20;3.50;;;23.70;99.90;;;;;;5073921;28;20269;-64
2023/10/13 10:32:36;;;;;;;3.35;2.60;;;23.80;99.90;;;;;;5070817;28;20199;-65
2023/10/13 10:35:09;;;;;;;3.08;2.10;;;24.00;99.90;;;;;;5080479;28;20256;-66
2023/10/13 10:37:39;;;;;;;5.00;2.85;;;23.90;99.90;;;;;;5084652;28;20556;-65
2023/10/13 10:40:18;;;;;;;3.55;3.00;;;24.10;99.90;;;;;;5070884;28;20233;-65
2023/10/13 10:42:52;;;;;;;6.65;3.05;;;24.10;99.90;;;;;;5070792;28;20238;-66
2023/10/13 10:45:22;;;;;;;2.53;2.33;;;24.00;99.90;;;;;;5070960;28;20209;-65
2023/10/13 10:47:58;;;;;;;5.53;2.80;;;23.70;99.90;;;;;;5071866;28;20222;-65
2023/10/13 10:50:34;;;;;;;3.67;2.90;;;23.80;99.90;;;;;;5070721;28;20465;-64
2023/10/13 10:53:08;;;;;;;2.28;2.08;;;24.10;99.90;;;;;;5070701;28;20241;-66
2023/10/13 10:55:37;;;;;;;3.20;2.45;;;24.60;99.90;;;;;;5070862;28;20302;-66
2023/10/13 10:58:23;;;;;;;8.30;3.45;;;25.10;99.90;;;;;;5078021;28;20290;-65
2023/10/13 11:01:01;;;;;;;3.70;2.70;;;25.50;99.90;;;;;;5070795;28;20207;-66
2023/10/13 11:03:29;;;;;;;3.35;2.90;;;25.70;99.90;;;;;;5073273;28;20225;-65
2023/10/13 11:05:59;;;;;;;2.85;2.55;;;26.10;99.90;;;;;;5081564;28;20291;-65
2023/10/13 11:08:31;;;;;;;2.50;2.30;;;26.20;99.90;;;;;;5078383;28;20798;-66
2023/10/13 11:11:01;;;;;;;2.85;2.10;;;26.30;99.90;;;;;;5071792;28;20203;-66
2023/10/13 11:13:50;;;;;;;2.92;2.47;;;26.60;99.90;;;;;;5083592;28;20693;-65
2023/10/13 11:16:24;;;;;;;5.55;2.97;;;26.50;99.90;;;;;;5075040;28;20284;-65
2023/10/13 11:19:01;;;;;;;2.00;1.90;;;26.40;99.90;;;;;;5074803;28;20282;-65
2023/10/13 11:21:31;;;;;;;2.75;2.33;;;26.40;99.90;;;;;;5075137;28;20681;-67
2023/10/13 11:24:08;;;;;;;2.92;2.47;;;26.40;99.90;;;;;;5080257;28;20249;-66
2023/10/13 11:26:40;;;;;;;4.28;3.88;;;26.30;99.90;;;;;;5075265;28;20206;-67
2023/10/13 11:29:10;;;;;;;3.17;2.72;;;26.40;99.90;;;;;;5074576;28;20229;-66
2023/10/13 11:31:38;;;;;;;8.25;2.95;;;26.60;99.90;;;;;;5083333;28;20211;-66
2023/10/13 11:34:06;;;;;;;3.55;2.20;;;26.80;99.90;;;;;;5078825;28;20230;-66
2023/10/13 11:36:35;;;;;;;2.92;2.25;;;27.10;99.90;;;;;;5093563;28;20243;-66
2023/10/13 11:39:07;;;;;;;5.38;3.53;;;27.40;99.90;;;;;;5085048;28;20203;-66
2023/10/13 11:41:45;;;;;;;2.38;1.83;;;27.40;99.90;;;;;;5074555;28;20241;-67
2023/10/13 11:44:23;;;;;;;3.22;2.80;;;27.20;99.90;;;;;;5075775;28;20227;-67
2023/10/13 11:46:55;;;;;;;2.67;2.47;;;27.00;99.90;;;;;;5075078;28;20673;-67
2023/10/13 11:49:37;;;;;;;5.25;2.70;;;26.80;99.90;;;;;;5074379;28;20218;-66
2023/10/13 11:52:17;;;;;;;2.60;2.40;;;26.80;99.90;;;;;;5081752;28;20320;-67
2023/10/13 11:54:46;;;;;;;3.08;2.78;;;27.10;99.90;;;;;;5075252;28;20226;-66
2023/10/13 11:57:18;;;;;;;2.97;2.58;;;27.40;99.90;;;;;;5074905;28;20214;-66
2023/10/13 11:59:55;;;;;;;3.35;2.30;;;27.70;99.90;;;;;;5075358;28;20207;-67
2023/10/13 12:05:13;;;;;;;3.38;2.60;;;27.70;99.90;;;;;;5083790;28;20572;-66
2023/10/13 12:07:45;;;;;;;2.80;2.40;;;27.40;99.90;;;;;;5091813;28;20206;-66
2023/10/13 12:10:20;;;;;;;3.20;2.90;;;26.80;99.90;;;;;;5076511;28;20573;-66
2023/10/13 12:12:53;;;;;;;5.25;3.10;;;26.50;99.90;;;;;;5081589;28;20230;-67
2023/10/13 12:15:36;;;;;;;3.45;2.58;;;25.90;99.90;;;;;;5074657;28;20214;-67
2023/10/13 12:18:05;;;;;;;5.20;3.30;;;25.70;99.90;;;;;;5082801;28;20198;-67
2023/10/13 12:20:35;;;;;;;10.07;6.55;;;25.70;99.90;;;;;;5075293;28;20211;-66
2023/10/13 12:23:15;;;;;;;6.32;4.93;;;25.50;99.90;;;;;;5073160;28;20219;-67
2023/10/13 12:25:57;;;;;;;3.00;2.67;;;25.50;99.90;;;;;;5081520;28;20275;-66
2023/10/13 12:28:26;;;;;;;3.42;2.45;;;25.40;99.90;;;;;;5074361;28;20223;-66
2023/10/13 12:31:03;;;;;;;2.75;2.55;;;25.20;99.90;;;;;;5075003;28;20233;-66
2023/10/13 12:33:37;;;;;;;3.50;3.20;;;25.00;99.90;;;;;;5074494;28;20223;-66
2023/10/13 12:36:14;;;;;;;3.45;2.45;;;25.00;99.90;;;;;;5081101;28;20451;-68
2023/10/13 12:39:01;;;;;;;2.60;2.17;;;25.00;99.90;;;;;;5081213;28;20195;-66
2023/10/13 12:49:59;;;;;;;6.97;3.83;;;24.80;99.90;;;;;;5074777;28;20223;-66
2023/10/13 12:52:31;;;;;;;5.00;2.22;;;24.80;99.90;;;;;;5074239;28;20210;-66
2023/10/13 12:55:06;;;;;;;3.35;2.83;;;24.90;99.90;;;;;;5074896;28;20567;-66
2023/10/13 12:57:42;;;;;;;2.83;2.20;;;24.80;99.90;;;;;;5074778;28;20665;-66
2023/10/13 13:00:32;;;;;;;7.50;2.63;;;24.80;99.90;;;;;;5076441;28;20207;-66
2023/10/13 13:03:11;;;;;;;3.38;2.80;;;24.80;99.90;;;;;;5074694;28;20254;-68
2023/10/13 13:05:44;;;;;;;3.17;1.75;;;24.90;99.90;;;;;;5087402;28;20636;-66
2023/10/13 13:08:21;;;;;;;3.65;2.15;;;25.10;99.90;;;;;;5085091;28;20215;-66
2023/10/13 13:10:50;;;;;;;3.30;1.90;;;25.10;99.90;;;;;;5074351;28;20214;-66
2023/10/13 13:13:24;;;;;;;4.30;3.03;;;25.00;99.90;;;;;;5074304;28;20717;-66
2023/10/13 13:15:52;;;;;;;3.05;2.40;;;25.00;99.90;;;;;;5074790;28;20645;-67
2023/10/13 13:18:22;;;;;;;3.65;2.20;;;25.00;99.90;;;;;;5074148;28;20199;-67
2023/10/13 13:20:54;;;;;;;2.00;1.80;;;24.80;99.90;;;;;;5074286;28;20203;-67
2023/10/13 13:23:25;;;;;;;2.55;2.35;;;24.80;99.90;;;;;;5074052;28;20223;-67
2023/10/13 13:25:56;;;;;;;2.17;2.08;;;24.70;99.90;;;;;;5074665;28;20250;-67
2023/10/13 13:28:28;;;;;;;2.65;2.10;;;24.70;99.90;;;;;;5075437;28;20214;-67
2023/10/13 13:30:57;;;;;;;2.70;2.42;;;24.80;99.90;;;;;;5074350;28;20614;-66
2023/10/13 13:33:26;;;;;;;5.78;2.30;;;24.70;99.90;;;;;;5073805;28;20255;-67
2023/10/13 13:35:55;;;;;;;3.33;2.67;;;24.80;99.90;;;;;;5082857;28;20218;-68
2023/10/13 13:38:27;;;;;;;2.38;1.80;;;25.00;99.90;;;;;;5075220;28;20260;-67
2023/10/13 13:40:55;;;;;;;2.60;2.35;;;25.10;99.90;;;;;;5074625;28;20243;-67
2023/10/13 13:43:37;;;;;;;2.35;2.15;;;25.20;99.90;;;;;;5073995;28;20318;-67
2023/10/13 13:46:09;;;;;;;3.28;1.90;;;25.10;99.90;;;;;;5076350;28;20222;-67
2023/10/13 13:48:40;;;;;;;2.13;1.90;;;25.00;99.90;;;;;;5085884;28;20223;-67
2023/10/13 13:51:14;;;;;;;3.05;1.58;;;25.00;99.90;;;;;;5078598;28;20562;-67
2023/10/13 13:53:45;;;;;;;2.75;2.35;;;25.00;99.90;;;;;;5073873;28;20223;-67
2023/10/13 13:56:16;;;;;;;3.47;2.05;;;25.00;99.90;;;;;;5076775;28;20198;-67
2023/10/13 13:58:45;;;;;;;3.25;1.73;;;25.30;99.90;;;;;;5074245;28;20191;-68
2023/10/13 14:01:14;;;;;;;2.05;1.90;;;25.90;99.90;;;;;;5074149;28;20206;-67
2023/10/13 14:03:46;;;;;;;2.47;2.28;;;26.40;99.90;;;;;;5073857;28;20227;-68
2023/10/13 14:06:18;;;;;;;2.95;2.20;;;26.90;99.90;;;;;;5082285;28;20252;-67
2023/10/13 14:08:48;;;;;;;3.92;2.30;;;27.20;99.90;;;;;;5081449;28;20219;-67
2023/10/13 14:12:25;;;;;;;2.38;2.05;;;27.50;99.90;;;;;;5073617;28;20229;-67
2023/10/13 14:14:11;;;;;;;3.33;2.40;;;27.60;99.90;;;;;;5076537;28;20704;-68
2023/10/13 14:16:44;;;;;;;2.42;2.22;;;27.60;99.90;;;;;;5082471;28;20218;-67
2023/10/13 14:19:19;;;;;;;2.83;2.35;;;27.40;99.90;;;;;;5073977;28;20261;-66
2023/10/13 14:21:53;;;;;;;4.50;2.70;;;27.10;99.90;;;;;;5074297;28;20564;-67
2023/10/13 14:24:27;;;;;;;2.58;1.90;;;26.70;99.90;;;;;;5073908;28;20304;-67
2023/10/13 14:26:55;;;;;;;2.67;2.47;;;26.50;99.90;;;;;;5082839;28;20215;-67
2023/10/13 14:29:26;;;;;;;2.08;1.90;;;26.30;99.90;;;;;;5078797;28;20226;-67
2023/10/13 14:31:54;;;;;;;1.70;1.60;;;26.10;99.90;;;;;;5074005;28;20701;-67
2023/10/13 14:34:26;;;;;;;6.15;2.75;;;25.80;99.90;;;;;;5076750;28;20223;-67
2023/10/13 14:36:54;;;;;;;2.15;1.95;;;25.60;99.90;;;;;;5090655;28;20537;-68
2023/10/13 14:39:22;;;;;;;2.50;2.10;;;25.40;99.90;;;;;;5076241;28;20199;-67
2023/10/13 14:41:50;;;;;;;2.20;1.90;;;25.30;99.90;;;;;;5076464;28;20292;-68
2023/10/13 14:44:18;;;;;;;3.08;2.80;;;25.10;99.90;;;;;;5073622;28;20237;-66
2023/10/13 14:46:46;;;;;;;5.07;2.40;;;25.10;99.90;;;;;;5073534;28;20202;-67
2023/10/13 14:49:18;;;;;;;2.60;2.40;;;25.00;99.90;;;;;;5073774;28;20223;-68
2023/10/13 14:51:49;;;;;;;4.90;1.95;;;25.00;99.90;;;;;;5073995;28;20384;-67
2023/10/13 14:54:25;;;;;;;2.53;2.33;;;25.00;99.90;;;;;;5073907;28;20222;-67
2023/10/13 14:56:54;;;;;;;3.10;1.77;;;24.90;99.90;;;;;;5080786;28;20205;-67
2023/10/13 14:59:22;;;;;;;2.38;2.17;;;24.90;99.90;;;;;;5073790;28;20210;-66
2023/10/13 15:01:50;;;;;;;2.63;1.80;;;24.80;99.90;;;;;;5073929;28;20207;-67
2023/10/13 15:04:18;;;;;;;2.53;1.65;;;24.70;99.90;;;;;;5082137;28;20658;-67
2023/10/13 15:06:47;;;;;;;5.18;2.20;;;24.70;99.90;;;;;;5082607;28;20255;-68
2023/10/13 15:09:23;;;;;;;3.50;2.80;;;24.70;99.90;;;;;;5077965;28;20230;-67
2023/10/13 15:11:53;;;;;;;2.65;2.20;;;24.60;99.90;;;;;;5075906;28;20207;-66
2023/10/13 15:14:22;;;;;;;3.08;2.33;;;24.50;99.90;;;;;;5074034;28;20277;-66
2023/10/13 15:16:52;;;;;;;1.52;1.33;;;24.40;99.90;;;;;;5074307;28;20206;-67
2023/10/13 15:19:20;;;;;;;4.25;2.30;;;24.30;99.90;;;;;;5074082;28;20778;-66
2023/10/13 15:21:50;;;;;;;1.75;1.65;;;24.20;99.90;;;;;;5078269;28;20214;-67
2023/10/13 15:24:21;;;;;;;2.78;1.50;;;24.10;99.90;;;;;;5073836;28;20757;-67
2023/10/13 15:27:01;;;;;;;1.75;1.65;;;24.10;99.90;;;;;;5076045;28;20227;-67
2023/10/13 15:29:35;;;;;;;2.45;1.77;;;24.10;99.90;;;;;;5075873;28;20758;-66
2023/10/13 15:34:49;;;;;;;3.00;1.83;;;24.00;99.90;;;;;;5077206;28;20211;-67
2023/10/13 15:37:19;;;;;;;2.38;1.83;;;23.90;99.90;;;;;;5085447;28;20293;-67
2023/10/13 15:39:47;;;;;;;3.83;1.90;;;23.90;99.90;;;;;;5074238;28;20615;-67
2023/10/13 15:42:15;;;;;;;3.15;2.15;;;23.80;99.90;;;;;;5074712;28;20227;-68